sensor_id;sensor_type;location;lat;lon;timestamp;pressure;altitude;pressure_sealevel;temperature;humidity
42415;BME280;28058;46.344;17.786;2023-03-22T00:01:23;118336.50;;;-144.97;100.00
42415;BME280;28058;46.344;17.786;2023-03-22T00:03:50;118336.50;;;-144.97;100.00
42415;BME280;28058;46.344;17.786;2023-03-22T00:06:17;118336.50;;;-144.97;100.00
42415;BME280;28058;46.344;17.786;2023-03-22T00:08:47;118336.50;;;-144.97;100.00
42415;BME280;28058;46.344;17.786;2023-03-22T00:11:13;118336.50;;;-144.97;100.00
42415;BME280;28058;46.344;17.786;2023-03-22T00:13:40;118336.50;;;-144.97;100.00
42415;BME280;28058;46.344;17.786;2023-03-22T00:16:08;118336.50;;;-144.97;100.00
42415;BME280;28058;46.344;17.786;2023-03-22T00:18:36;118336.50;;;-144.97;100.00
42415;BME280;28058;46.344;17.786;2023-03-22T00:21:02;118336.50;;;-144.97;100.00
42415;BME280;28058;46.344;17.786;2023-03-22T00:23:29;118336.50;;;-144.97;100.00
42415;BME280;28058;46.344;17.786;2023-03-22T00:25:56;118336.50;;;-144.97;100.00
42415;BME280;28058;46.344;17.786;2023-03-22T00:28:23;118336.50;;;-144.97;100.00
42415;BME280;28058;46.344;17.786;2023-03-22T00:30:51;118336.50;;;-144.97;100.00
42415;BME280;28058;46.344;17.786;2023-03-22T00:33:18;118336.50;;;-144.97;100.00
42415;BME280;28058;46.344;17.786;2023-03-22T00:35:51;118336.50;;;-144.97;100.00
42415;BME280;28058;46.344;17.786;2023-03-22T00:38:20;118336.50;;;-144.97;100.00
42415;BME280;28058;46.344;17.786;2023-03-22T00:41:08;118336.50;;;-144.97;100.00
42415;BME280;28058;46.344;17.786;2023-03-22T00:43:36;118336.50;;;-144.97;100.00
42415;BME280;28058;46.344;17.786;2023-03-22T00:46:03;118336.50;;;-144.97;100.00
42415;BME280;28058;46.344;17.786;2023-03-22T00:48:30;118336.50;;;-144.97;100.00
42415;BME280;28058;46.344;17.786;2023-03-22T00:50:57;118336.50;;;-144.97;100.00
42415;BME280;28058;46.344;17.786;2023-03-22T00:53:24;118336.50;;;-144.97;100.00
42415;BME280;28058;46.344;17.786;2023-03-22T00:55:51;118336.50;;;-144.97;100.00
42415;BME280;28058;46.344;17.786;2023-03-22T00:58:18;118336.50;;;-144.97;100.00
42415;BME280;28058;46.344;17.786;2023-03-22T01:00:44;118336.50;;;-144.97;100.00
42415;BME280;28058;46.344;17.786;2023-03-22T01:03:11;118336.50;;;-144.97;100.00
42415;BME280;28058;46.344;17.786;2023-03-22T01:05:39;118336.50;;;-144.97;100.00
42415;BME280;28058;46.344;17.786;2023-03-22T01:08:06;118336.50;;;-144.97;100.00
42415;BME280;28058;46.344;17.786;2023-03-22T01:10:39;118336.50;;;-144.97;100.00
42415;BME280;28058;46.344;17.786;2023-03-22T01:13:06;118336.50;;;-144.97;100.00
42415;BME280;28058;46.344;17.786;2023-03-22T01:15:33;118336.50;;;-144.97;100.00
42415;BME280;28058;46.344;17.786;2023-03-22T01:18:00;118336.50;;;-144.97;100.00
42415;BME280;28058;46.344;17.786;2023-03-22T01:20:27;118336.50;;;-144.97;100.00
42415;BME280;28058;46.344;17.786;2023-03-22T01:22:53;118336.50;;;-144.97;100.00
42415;BME280;28058;46.344;17.786;2023-03-22T01:25:20;118336.50;;;-144.97;100.00
42415;BME280;28058;46.344;17.786;2023-03-22T01:27:47;118336.50;;;-144.97;100.00
42415;BME280;28058;46.344;17.786;2023-03-22T01:30:13;118336.50;;;-144.97;100.00
42415;BME280;28058;46.344;17.786;2023-03-22T01:32:40;118336.50;;;-144.97;100.00
42415;BME280;28058;46.344;17.786;2023-03-22T01:35:07;118336.50;;;-144.97;100.00
42415;BME280;28058;46.344;17.786;2023-03-22T01:37:34;118336.50;;;-144.97;100.00
42415;BME280;28058;46.344;17.786;2023-03-22T01:40:01;118336.50;;;-144.97;100.00
42415;BME280;28058;46.344;17.786;2023-03-22T01:42:29;118336.50;;;-144.97;100.00
42415;BME280;28058;46.344;17.786;2023-03-22T01:50:10;118336.50;;;-144.97;100.00
42415;BME280;28058;46.344;17.786;2023-03-22T01:52:37;118336.50;;;-144.97;100.00
42415;BME280;28058;46.344;17.786;2023-03-22T01:55:05;118336.50;;;-144.97;100.00
42415;BME280;28058;46.344;17.786;2023-03-22T01:57:34;118336.50;;;-144.97;100.00
42415;BME280;28058;46.344;17.786;2023-03-22T02:00:05;118336.50;;;-144.97;100.00
42415;BME280;28058;46.344;17.786;2023-03-22T02:02:38;118336.50;;;-144.97;100.00
42415;BME280;28058;46.344;17.786;2023-03-22T02:05:05;118336.50;;;-144.97;100.00
42415;BME280;28058;46.344;17.786;2023-03-22T02:07:32;118336.50;;;-144.97;100.00
42415;BME280;28058;46.344;17.786;2023-03-22T02:09:58;118336.50;;;-144.97;100.00
42415;BME280;28058;46.344;17.786;2023-03-22T02:17:47;118336.50;;;-144.97;100.00
42415;BME280;28058;46.344;17.786;2023-03-22T02:22:50;118336.50;;;-144.97;100.00
42415;BME280;28058;46.344;17.786;2023-03-22T02:38:54;118336.50;;;-144.97;100.00
42415;BME280;28058;46.344;17.786;2023-03-22T02:41:45;118336.50;;;-144.97;100.00
42415;BME280;28058;46.344;17.786;2023-03-22T02:49:51;118336.50;;;-144.97;100.00
42415;BME280;28058;46.344;17.786;2023-03-22T02:52:31;118336.50;;;-144.97;100.00
42415;BME280;28058;46.344;17.786;2023-03-22T02:57:54;118336.50;;;-144.97;100.00
42415;BME280;28058;46.344;17.786;2023-03-22T03:00:21;118336.50;;;-144.97;100.00
42415;BME280;28058;46.344;17.786;2023-03-22T03:02:51;118336.50;;;-144.97;100.00
42415;BME280;28058;46.344;17.786;2023-03-22T03:05:19;118336.50;;;-144.97;100.00
42415;BME280;28058;46.344;17.786;2023-03-22T03:07:49;118336.50;;;-144.97;100.00
42415;BME280;28058;46.344;17.786;2023-03-22T03:10:17;118336.50;;;-144.97;100.00
42415;BME280;28058;46.344;17.786;2023-03-22T03:12:45;118336.50;;;-144.97;100.00
42415;BME280;28058;46.344;17.786;2023-03-22T03:15:13;118336.50;;;-144.97;100.00
42415;BME280;28058;46.344;17.786;2023-03-22T03:23:01;118336.50;;;-144.97;100.00
42415;BME280;28058;46.344;17.786;2023-03-22T03:28:01;118336.50;;;-144.97;100.00
42415;BME280;28058;46.344;17.786;2023-03-22T03:30:31;118336.50;;;-144.97;100.00
42415;BME280;28058;46.344;17.786;2023-03-22T03:33:01;118336.50;;;-144.97;100.00
42415;BME280;28058;46.344;17.786;2023-03-22T03:35:37;118336.50;;;-144.97;100.00
42415;BME280;28058;46.344;17.786;2023-03-22T03:38:10;118336.50;;;-144.97;100.00
42415;BME280;28058;46.344;17.786;2023-03-22T03:40:42;118336.50;;;-144.97;100.00
42415;BME280;28058;46.344;17.786;2023-03-22T03:43:11;118336.50;;;-144.97;100.00
42415;BME280;28058;46.344;17.786;2023-03-22T03:45:38;118336.50;;;-144.97;100.00
42415;BME280;28058;46.344;17.786;2023-03-22T03:48:07;118336.50;;;-144.97;100.00
42415;BME280;28058;46.344;17.786;2023-03-22T03:50:35;118336.50;;;-144.97;100.00
42415;BME280;28058;46.344;17.786;2023-03-22T03:53:01;118336.50;;;-144.97;100.00
42415;BME280;28058;46.344;17.786;2023-03-22T03:55:28;118336.50;;;-144.97;100.00
42415;BME280;28058;46.344;17.786;2023-03-22T03:57:56;118336.50;;;-144.97;100.00
42415;BME280;28058;46.344;17.786;2023-03-22T04:00:22;118336.50;;;-144.97;100.00
42415;BME280;28058;46.344;17.786;2023-03-22T04:02:49;118336.50;;;-144.97;100.00
42415;BME280;28058;46.344;17.786;2023-03-22T04:05:16;118336.50;;;-144.97;100.00
42415;BME280;28058;46.344;17.786;2023-03-22T04:07:42;118336.50;;;-144.97;100.00
42415;BME280;28058;46.344;17.786;2023-03-22T04:10:09;118336.50;;;-144.97;100.00
42415;BME280;28058;46.344;17.786;2023-03-22T04:12:36;118336.50;;;-144.97;100.00
42415;BME280;28058;46.344;17.786;2023-03-22T04:15:02;118336.50;;;-144.97;100.00
42415;BME280;28058;46.344;17.786;2023-03-22T04:17:29;118336.50;;;-144.97;100.00
42415;BME280;28058;46.344;17.786;2023-03-22T04:19:57;118336.50;;;-144.97;100.00
42415;BME280;28058;46.344;17.786;2023-03-22T04:22:24;118336.50;;;-144.97;100.00
42415;BME280;28058;46.344;17.786;2023-03-22T04:24:51;118336.50;;;-144.97;100.00
42415;BME280;28058;46.344;17.786;2023-03-22T04:27:19;118336.50;;;-144.97;100.00
42415;BME280;28058;46.344;17.786;2023-03-22T04:29:46;118336.50;;;-144.97;100.00
42415;BME280;28058;46.344;17.786;2023-03-22T04:32:17;118336.50;;;-144.97;100.00
42415;BME280;28058;46.344;17.786;2023-03-22T04:34:44;118336.50;;;-144.97;100.00
42415;BME280;28058;46.344;17.786;2023-03-22T04:37:12;118336.50;;;-144.97;100.00
42415;BME280;28058;46.344;17.786;2023-03-22T04:39:39;118336.50;;;-144.97;100.00
42415;BME280;28058;46.344;17.786;2023-03-22T04:42:05;118336.50;;;-144.97;100.00
42415;BME280;28058;46.344;17.786;2023-03-22T04:44:32;118336.50;;;-144.97;100.00
42415;BME280;28058;46.344;17.786;2023-03-22T04:46:59;118336.50;;;-144.97;100.00
42415;BME280;28058;46.344;17.786;2023-03-22T04:49:26;118336.50;;;-144.97;100.00
42415;BME280;28058;46.344;17.786;2023-03-22T04:51:53;118336.50;;;-144.97;100.00
42415;BME280;28058;46.344;17.786;2023-03-22T04:54:21;118336.50;;;-144.97;100.00
42415;BME280;28058;46.344;17.786;2023-03-22T04:56:48;118336.50;;;-144.97;100.00
42415;BME280;28058;46.344;17.786;2023-03-22T04:59:15;118336.50;;;-144.97;100.00
42415;BME280;28058;46.344;17.786;2023-03-22T05:01:46;118336.50;;;-144.97;100.00
42415;BME280;28058;46.344;17.786;2023-03-22T05:04:13;118336.50;;;-144.97;100.00
42415;BME280;28058;46.344;17.786;2023-03-22T05:06:39;118336.50;;;-144.97;100.00
42415;BME280;28058;46.344;17.786;2023-03-22T05:09:06;118336.50;;;-144.97;100.00
42415;BME280;28058;46.344;17.786;2023-03-22T05:11:33;118336.50;;;-144.97;100.00
42415;BME280;28058;46.344;17.786;2023-03-22T05:14:00;118336.50;;;-144.97;100.00
42415;BME280;28058;46.344;17.786;2023-03-22T05:16:26;118336.50;;;-144.97;100.00
42415;BME280;28058;46.344;17.786;2023-03-22T05:18:53;118336.50;;;-144.97;100.00
42415;BME280;28058;46.344;17.786;2023-03-22T05:21:21;118336.50;;;-144.97;100.00
42415;BME280;28058;46.344;17.786;2023-03-22T05:23:56;118336.50;;;-144.97;100.00
42415;BME280;28058;46.344;17.786;2023-03-22T05:26:24;118336.50;;;-144.97;100.00
42415;BME280;28058;46.344;17.786;2023-03-22T05:28:52;118336.50;;;-144.97;100.00
42415;BME280;28058;46.344;17.786;2023-03-22T05:31:19;118336.50;;;-144.97;100.00
42415;BME280;28058;46.344;17.786;2023-03-22T05:33:47;118336.50;;;-144.97;100.00
42415;BME280;28058;46.344;17.786;2023-03-22T05:36:16;118336.50;;;-144.97;100.00
42415;BME280;28058;46.344;17.786;2023-03-22T05:38:44;118336.50;;;-144.97;100.00
42415;BME280;28058;46.344;17.786;2023-03-22T05:41:11;118336.50;;;-144.97;100.00
42415;BME280;28058;46.344;17.786;2023-03-22T05:43:38;118336.50;;;-144.97;100.00
42415;BME280;28058;46.344;17.786;2023-03-22T05:46:08;118336.50;;;-144.97;100.00
42415;BME280;28058;46.344;17.786;2023-03-22T05:48:35;118336.50;;;-144.97;100.00
42415;BME280;28058;46.344;17.786;2023-03-22T05:51:09;118336.50;;;-144.97;100.00
42415;BME280;28058;46.344;17.786;2023-03-22T05:53:36;118336.50;;;-144.97;100.00
42415;BME280;28058;46.344;17.786;2023-03-22T05:56:03;118336.50;;;-144.97;100.00
42415;BME280;28058;46.344;17.786;2023-03-22T05:58:30;118336.50;;;-144.97;100.00
42415;BME280;28058;46.344;17.786;2023-03-22T06:00:57;118336.50;;;-144.97;100.00
42415;BME280;28058;46.344;17.786;2023-03-22T06:03:27;118336.50;;;-144.97;100.00
42415;BME280;28058;46.344;17.786;2023-03-22T06:05:53;118336.50;;;-144.97;100.00
42415;BME280;28058;46.344;17.786;2023-03-22T06:08:21;118336.50;;;-144.97;100.00
42415;BME280;28058;46.344;17.786;2023-03-22T06:10:51;118336.50;;;-144.97;100.00
42415;BME280;28058;46.344;17.786;2023-03-22T06:13:18;118336.50;;;-144.97;100.00
42415;BME280;28058;46.344;17.786;2023-03-22T06:15:46;118336.50;;;-144.97;100.00
42415;BME280;28058;46.344;17.786;2023-03-22T06:18:12;118336.50;;;-144.97;100.00
42415;BME280;28058;46.344;17.786;2023-03-22T06:20:39;118336.50;;;-144.97;100.00
42415;BME280;28058;46.344;17.786;2023-03-22T06:23:06;118336.50;;;-144.97;100.00
42415;BME280;28058;46.344;17.786;2023-03-22T06:25:33;118336.50;;;-144.97;100.00
42415;BME280;28058;46.344;17.786;2023-03-22T06:28:00;118336.50;;;-144.97;100.00
42415;BME280;28058;46.344;17.786;2023-03-22T06:30:27;118336.50;;;-144.97;100.00
42415;BME280;28058;46.344;17.786;2023-03-22T06:32:53;118336.50;;;-144.97;100.00
42415;BME280;28058;46.344;17.786;2023-03-22T06:35:20;118336.50;;;-144.97;100.00
42415;BME280;28058;46.344;17.786;2023-03-22T06:37:47;118336.50;;;-144.97;100.00
42415;BME280;28058;46.344;17.786;2023-03-22T06:40:14;118336.50;;;-144.97;100.00
42415;BME280;28058;46.344;17.786;2023-03-22T06:42:41;118336.50;;;-144.97;100.00
42415;BME280;28058;46.344;17.786;2023-03-22T06:45:07;118336.50;;;-144.97;100.00
42415;BME280;28058;46.344;17.786;2023-03-22T06:47:34;118336.50;;;-144.97;100.00
42415;BME280;28058;46.344;17.786;2023-03-22T06:50:01;118336.50;;;-144.97;100.00
42415;BME280;28058;46.344;17.786;2023-03-22T06:52:28;118336.50;;;-144.97;100.00
42415;BME280;28058;46.344;17.786;2023-03-22T06:54:55;118336.50;;;-144.97;100.00
42415;BME280;28058;46.344;17.786;2023-03-22T06:57:22;118336.50;;;-144.97;100.00
42415;BME280;28058;46.344;17.786;2023-03-22T06:59:49;118336.50;;;-144.97;100.00
42415;BME280;28058;46.344;17.786;2023-03-22T07:02:15;118336.50;;;-144.97;100.00
42415;BME280;28058;46.344;17.786;2023-03-22T07:04:43;118336.50;;;-144.97;100.00
42415;BME280;28058;46.344;17.786;2023-03-22T07:07:10;118336.50;;;-144.97;100.00
42415;BME280;28058;46.344;17.786;2023-03-22T07:09:37;118336.50;;;-144.97;100.00
42415;BME280;28058;46.344;17.786;2023-03-22T07:12:04;118336.50;;;-144.97;100.00
42415;BME280;28058;46.344;17.786;2023-03-22T07:14:32;118336.50;;;-144.97;100.00
42415;BME280;28058;46.344;17.786;2023-03-22T07:16:59;118336.50;;;-144.97;100.00
42415;BME280;28058;46.344;17.786;2023-03-22T07:19:26;118336.50;;;-144.97;100.00
42415;BME280;28058;46.344;17.786;2023-03-22T07:21:53;118336.50;;;-144.97;99.81
42415;BME280;28058;46.344;17.786;2023-03-22T07:24:19;118336.50;;;-144.97;97.07
42415;BME280;28058;46.344;17.786;2023-03-22T07:26:46;118336.50;;;-144.97;94.53
42415;BME280;28058;46.344;17.786;2023-03-22T07:29:13;118336.50;;;-144.97;95.43
42415;BME280;28058;46.344;17.786;2023-03-22T07:31:39;118336.50;;;-144.97;96.28
42415;BME280;28058;46.344;17.786;2023-03-22T07:34:07;118336.50;;;-144.97;100.00
42415;BME280;28058;46.344;17.786;2023-03-22T07:36:34;118336.50;;;-144.97;100.00
42415;BME280;28058;46.344;17.786;2023-03-22T07:39:03;118336.50;;;-144.97;100.00
42415;BME280;28058;46.344;17.786;2023-03-22T07:41:31;118336.50;;;-144.97;100.00
42415;BME280;28058;46.344;17.786;2023-03-22T07:43:58;118336.50;;;-144.97;97.30
42415;BME280;28058;46.344;17.786;2023-03-22T07:46:42;118336.50;;;-144.97;95.23
42415;BME280;28058;46.344;17.786;2023-03-22T07:49:09;118336.50;;;-144.97;94.13
42415;BME280;28058;46.344;17.786;2023-03-22T07:51:37;118336.50;;;-144.97;93.34
42415;BME280;28058;46.344;17.786;2023-03-22T07:54:03;118336.50;;;-144.97;91.04
42415;BME280;28058;46.344;17.786;2023-03-22T07:56:33;118336.50;;;-144.97;89.87
42415;BME280;28058;46.344;17.786;2023-03-22T07:58:59;118336.50;;;-144.97;89.36
42415;BME280;28058;46.344;17.786;2023-03-22T08:01:26;118336.50;;;-144.97;88.70
42415;BME280;28058;46.344;17.786;2023-03-22T08:03:53;118336.50;;;-144.97;88.39
42415;BME280;28058;46.344;17.786;2023-03-22T08:06:20;118336.50;;;-144.97;87.32
42415;BME280;28058;46.344;17.786;2023-03-22T08:08:47;118336.50;;;-144.97;86.32
42415;BME280;28058;46.344;17.786;2023-03-22T08:11:13;118336.50;;;-144.97;87.72
42415;BME280;28058;46.344;17.786;2023-03-22T08:13:40;118336.50;;;-144.97;90.87
42415;BME280;28058;46.344;17.786;2023-03-22T08:16:07;118336.50;;;-144.97;90.04
42415;BME280;28058;46.344;17.786;2023-03-22T08:18:34;118336.50;;;-144.97;91.04
42415;BME280;28058;46.344;17.786;2023-03-22T08:21:01;118336.50;;;-144.97;89.62
42415;BME280;28058;46.344;17.786;2023-03-22T08:23:27;118336.50;;;-144.97;88.39
42415;BME280;28058;46.344;17.786;2023-03-22T08:26:07;118336.50;;;-144.97;87.98
42415;BME280;28058;46.344;17.786;2023-03-22T08:28:34;118336.50;;;-144.97;84.70
42415;BME280;28058;46.344;17.786;2023-03-22T08:31:01;118336.50;;;-144.97;80.76
42415;BME280;28058;46.344;17.786;2023-03-22T08:33:27;118336.50;;;-144.97;77.24
42415;BME280;28058;46.344;17.786;2023-03-22T08:36:07;118336.50;;;-144.97;81.35
42415;BME280;28058;46.344;17.786;2023-03-22T08:38:35;118336.50;;;-144.97;79.28
42415;BME280;28058;46.344;17.786;2023-03-22T08:41:02;118336.50;;;-144.97;80.45
42415;BME280;28058;46.344;17.786;2023-03-22T08:43:28;118336.50;;;-144.97;79.24
42415;BME280;28058;46.344;17.786;2023-03-22T08:45:55;118336.50;;;-144.97;75.35
42415;BME280;28058;46.344;17.786;2023-03-22T08:48:22;118336.50;;;-144.97;74.09
42415;BME280;28058;46.344;17.786;2023-03-22T08:50:49;118336.50;;;-144.97;73.70
42415;BME280;28058;46.344;17.786;2023-03-22T08:53:15;118336.50;;;-144.97;72.24
42415;BME280;28058;46.344;17.786;2023-03-22T08:55:42;118336.50;;;-144.97;71.24
42415;BME280;28058;46.344;17.786;2023-03-22T08:58:11;118336.50;;;-144.97;69.84
42415;BME280;28058;46.344;17.786;2023-03-22T09:00:38;118336.50;;;-144.97;67.56
42415;BME280;28058;46.344;17.786;2023-03-22T09:03:14;118336.50;;;-144.97;66.50
42415;BME280;28058;46.344;17.786;2023-03-22T09:05:41;118336.50;;;-144.97;63.61
42415;BME280;28058;46.344;17.786;2023-03-22T09:08:08;118336.50;;;-144.97;63.77
42415;BME280;28058;46.344;17.786;2023-03-22T09:10:45;118336.50;;;-144.97;62.11
42415;BME280;28058;46.344;17.786;2023-03-22T09:13:13;118336.50;;;-144.97;64.10
42415;BME280;28058;46.344;17.786;2023-03-22T09:15:42;118336.50;;;-144.97;62.90
42415;BME280;28058;46.344;17.786;2023-03-22T09:18:10;118336.50;;;-144.97;61.28
42415;BME280;28058;46.344;17.786;2023-03-22T09:20:37;118336.50;;;-144.97;59.44
42415;BME280;28058;46.344;17.786;2023-03-22T09:23:04;118336.50;;;-144.97;58.55
42415;BME280;28058;46.344;17.786;2023-03-22T09:25:31;118336.50;;;-144.97;60.15
42415;BME280;28058;46.344;17.786;2023-03-22T09:27:58;118336.50;;;-144.97;56.92
42415;BME280;28058;46.344;17.786;2023-03-22T09:30:25;118336.50;;;-144.97;53.11
42415;BME280;28058;46.344;17.786;2023-03-22T09:32:52;118336.50;;;-144.97;52.37
42415;BME280;28058;46.344;17.786;2023-03-22T09:35:19;118336.50;;;-144.97;50.91
42415;BME280;28058;46.344;17.786;2023-03-22T09:37:46;118336.50;;;-144.97;53.38
42415;BME280;28058;46.344;17.786;2023-03-22T09:40:15;118336.50;;;-144.97;52.84
42415;BME280;28058;46.344;17.786;2023-03-22T09:42:44;118336.50;;;-144.97;49.80
42415;BME280;28058;46.344;17.786;2023-03-22T09:45:19;118336.50;;;-144.97;49.43
42415;BME280;28058;46.344;17.786;2023-03-22T09:47:50;118336.50;;;-144.97;47.69
42415;BME280;28058;46.344;17.786;2023-03-22T09:50:19;118336.50;;;-144.97;46.84
42415;BME280;28058;46.344;17.786;2023-03-22T09:52:47;118336.50;;;-144.97;46.99
42415;BME280;28058;46.344;17.786;2023-03-22T09:55:19;118336.50;;;-144.97;50.18
42415;BME280;28058;46.344;17.786;2023-03-22T09:58:30;118336.50;;;-144.97;52.90
42415;BME280;28058;46.344;17.786;2023-03-22T10:00:58;118336.50;;;-144.97;50.06
42415;BME280;28058;46.344;17.786;2023-03-22T10:05:56;118336.50;;;-144.97;46.26
42415;BME280;28058;46.344;17.786;2023-03-22T10:11:24;118336.50;;;-144.97;46.59
42415;BME280;28058;46.344;17.786;2023-03-22T10:16:26;118336.50;;;-144.97;47.76
42415;BME280;28058;46.344;17.786;2023-03-22T10:18:56;118336.50;;;-144.97;46.75
42415;BME280;28058;46.344;17.786;2023-03-22T10:21:27;118336.50;;;-144.97;46.98
42415;BME280;28058;46.344;17.786;2023-03-22T10:23:55;118336.50;;;-144.97;47.00
42415;BME280;28058;46.344;17.786;2023-03-22T10:26:34;118336.50;;;-144.97;43.71
42415;BME280;28058;46.344;17.786;2023-03-22T10:29:03;118336.50;;;-144.97;41.89
42415;BME280;28058;46.344;17.786;2023-03-22T10:31:31;118336.50;;;-144.97;41.88
42415;BME280;28058;46.344;17.786;2023-03-22T10:34:04;118336.50;;;-144.97;41.34
42415;BME280;28058;46.344;17.786;2023-03-22T10:36:32;118336.50;;;-144.97;40.42
42415;BME280;28058;46.344;17.786;2023-03-22T10:39:06;118336.50;;;-144.97;39.37
42415;BME280;28058;46.344;17.786;2023-03-22T10:41:36;118336.50;;;-144.97;39.22
42415;BME280;28058;46.344;17.786;2023-03-22T10:44:04;118336.50;;;-144.97;38.80
42415;BME280;28058;46.344;17.786;2023-03-22T10:46:36;118336.50;;;-144.97;40.36
42415;BME280;28058;46.344;17.786;2023-03-22T10:49:03;118336.50;;;-144.97;38.19
42415;BME280;28058;46.344;17.786;2023-03-22T10:51:34;118336.50;;;-144.97;38.75
42415;BME280;28058;46.344;17.786;2023-03-22T10:54:04;118336.50;;;-144.97;37.55
42415;BME280;28058;46.344;17.786;2023-03-22T10:56:31;118336.50;;;-144.97;36.93
42415;BME280;28058;46.344;17.786;2023-03-22T10:58:58;118336.50;;;-144.97;36.62
42415;BME280;28058;46.344;17.786;2023-03-22T11:01:26;118336.50;;;-144.97;37.66
42415;BME280;28058;46.344;17.786;2023-03-22T11:04:05;118336.50;;;-144.97;35.73
42415;BME280;28058;46.344;17.786;2023-03-22T11:06:32;118336.50;;;-144.97;35.31
42415;BME280;28058;46.344;17.786;2023-03-22T11:09:14;118336.50;;;-144.97;32.86
42415;BME280;28058;46.344;17.786;2023-03-22T11:11:52;118336.50;;;-144.97;32.38
42415;BME280;28058;46.344;17.786;2023-03-22T11:14:32;118336.50;;;-144.97;31.91
42415;BME280;28058;46.344;17.786;2023-03-22T11:17:07;118336.50;;;-144.97;33.07
42415;BME280;28058;46.344;17.786;2023-03-22T11:22:04;118336.50;;;-144.97;32.16
42415;BME280;28058;46.344;17.786;2023-03-22T11:24:32;118336.50;;;-144.97;31.80
42415;BME280;28058;46.344;17.786;2023-03-22T11:27:15;118336.50;;;-144.97;32.30
42415;BME280;28058;46.344;17.786;2023-03-22T11:29:45;118336.50;;;-144.97;32.54
42415;BME280;28058;46.344;17.786;2023-03-22T11:35:19;118336.50;;;-144.97;31.57
42415;BME280;28058;46.344;17.786;2023-03-22T11:37:50;118336.50;;;-144.97;31.99
42415;BME280;28058;46.344;17.786;2023-03-22T11:40:21;118336.50;;;-144.97;33.20
42415;BME280;28058;46.344;17.786;2023-03-22T11:42:52;118336.50;;;-144.97;33.29
42415;BME280;28058;46.344;17.786;2023-03-22T11:45:23;118336.50;;;-144.97;32.37
42415;BME280;28058;46.344;17.786;2023-03-22T11:47:51;118336.50;;;-144.97;32.55
42415;BME280;28058;46.344;17.786;2023-03-22T11:50:26;118336.50;;;-144.97;31.67
42415;BME280;28058;46.344;17.786;2023-03-22T11:52:53;118336.50;;;-144.97;32.93
42415;BME280;28058;46.344;17.786;2023-03-22T11:55:20;118336.50;;;-144.97;31.29
42415;BME280;28058;46.344;17.786;2023-03-22T11:57:47;118336.50;;;-144.97;32.30
42415;BME280;28058;46.344;17.786;2023-03-22T12:00:16;118336.50;;;-144.97;32.70
42415;BME280;28058;46.344;17.786;2023-03-22T12:02:56;118336.50;;;-144.97;31.21
42415;BME280;28058;46.344;17.786;2023-03-22T12:05:27;118336.50;;;-144.97;31.72
42415;BME280;28058;46.344;17.786;2023-03-22T12:08:00;118336.50;;;-144.97;32.49
42415;BME280;28058;46.344;17.786;2023-03-22T12:10:35;118336.50;;;-144.97;32.08
42415;BME280;28058;46.344;17.786;2023-03-22T12:13:05;118336.50;;;-144.97;32.63
42415;BME280;28058;46.344;17.786;2023-03-22T12:15:37;118336.50;;;-144.97;32.41
42415;BME280;28058;46.344;17.786;2023-03-22T12:18:08;118336.50;;;-144.97;32.19
42415;BME280;28058;46.344;17.786;2023-03-22T12:23:11;118336.50;;;-144.97;32.49
42415;BME280;28058;46.344;17.786;2023-03-22T12:25:39;118336.50;;;-144.97;32.92
42415;BME280;28058;46.344;17.786;2023-03-22T12:28:10;118336.50;;;-144.97;33.15
42415;BME280;28058;46.344;17.786;2023-03-22T12:30:46;118336.50;;;-144.97;34.13
42415;BME280;28058;46.344;17.786;2023-03-22T12:36:00;118336.50;;;-144.97;33.47
42415;BME280;28058;46.344;17.786;2023-03-22T12:41:01;118336.50;;;-144.97;32.90
42415;BME280;28058;46.344;17.786;2023-03-22T12:46:19;118336.50;;;-144.97;33.40
42415;BME280;28058;46.344;17.786;2023-03-22T12:48:53;118336.50;;;-144.97;33.60
42415;BME280;28058;46.344;17.786;2023-03-22T12:51:23;118336.50;;;-144.97;33.45
42415;BME280;28058;46.344;17.786;2023-03-22T12:53:50;118336.50;;;-144.97;34.52
42415;BME280;28058;46.344;17.786;2023-03-22T12:56:19;118336.50;;;-144.97;33.62
42415;BME280;28058;46.344;17.786;2023-03-22T12:58:47;118336.50;;;-144.97;33.78
42415;BME280;28058;46.344;17.786;2023-03-22T13:01:23;118336.50;;;-144.97;34.10
42415;BME280;28058;46.344;17.786;2023-03-22T13:03:54;118336.50;;;-144.97;34.65
42415;BME280;28058;46.344;17.786;2023-03-22T13:11:46;118336.50;;;-144.97;34.94
42415;BME280;28058;46.344;17.786;2023-03-22T13:16:59;118336.50;;;-144.97;35.59
42415;BME280;28058;46.344;17.786;2023-03-22T13:19:28;118336.50;;;-144.97;35.11
42415;BME280;28058;46.344;17.786;2023-03-22T13:22:57;118336.50;;;-144.97;34.32
42415;BME280;28058;46.344;17.786;2023-03-22T13:24:57;118336.50;;;-144.97;34.31
42415;BME280;28058;46.344;17.786;2023-03-22T13:27:37;118336.50;;;-144.97;34.21
42415;BME280;28058;46.344;17.786;2023-03-22T13:30:05;118336.50;;;-144.97;34.22
42415;BME280;28058;46.344;17.786;2023-03-22T13:32:51;118336.50;;;-144.97;35.22
42415;BME280;28058;46.344;17.786;2023-03-22T13:38:08;118336.50;;;-144.97;33.79
42415;BME280;28058;46.344;17.786;2023-03-22T13:40:36;118336.50;;;-144.97;33.71
42415;BME280;28058;46.344;17.786;2023-03-22T13:43:27;118336.50;;;-144.97;33.40